createdAt,value
2024-01-11T00:01:51.118Z,-4.40
2024-01-11T00:04:19.239Z,-4.30
2024-01-11T00:06:49.083Z,-4.40
2024-01-11T00:09:17.194Z,-4.60
2024-01-11T00:11:46.628Z,-4.60
2024-01-11T00:14:14.748Z,-4.60
2024-01-11T00:16:43.800Z,-4.70
2024-01-11T00:19:12.042Z,-4.80
2024-01-11T00:21:42.033Z,-4.80
2024-01-11T00:24:10.439Z,-4.80
2024-01-11T00:26:38.611Z,-4.60
2024-01-11T00:29:08.225Z,-4.60
2024-01-11T00:31:36.398Z,-4.70
2024-01-11T00:34:04.484Z,-4.80
2024-01-11T00:36:34.014Z,-4.80
2024-01-11T00:39:02.126Z,-4.80
2024-01-11T00:41:30.193Z,-4.80
2024-01-11T00:43:58.248Z,-4.90
2024-01-11T00:46:27.617Z,-5.00
2024-01-11T00:48:56.965Z,-4.90
2024-01-11T00:51:25.306Z,-4.90
2024-01-11T00:53:53.747Z,-5.00
2024-01-11T00:56:22.120Z,-5.00
2024-01-11T00:58:50.228Z,-5.00
2024-01-11T01:01:18.419Z,-5.10
2024-01-11T01:03:47.828Z,-5.10
2024-01-11T01:06:15.952Z,-5.10
2024-01-11T01:08:44.177Z,-5.10
2024-01-11T01:11:12.246Z,-5.10
2024-01-11T01:13:40.248Z,-5.10
2024-01-11T01:16:08.220Z,-5.10
2024-01-11T01:18:36.366Z,-5.10
2024-01-11T01:21:07.964Z,-5.10
2024-01-11T01:23:36.102Z,-5.20
2024-01-11T01:26:06.581Z,-5.20
2024-01-11T01:28:35.651Z,-5.20
2024-01-11T01:31:03.712Z,-5.30
2024-01-11T01:33:31.894Z,-5.30
2024-01-11T01:35:59.957Z,-5.30
2024-01-11T01:38:31.683Z,-5.50
2024-01-11T01:40:59.920Z,-5.40
2024-01-11T01:43:27.900Z,-5.30
2024-01-11T01:45:56.317Z,-5.30
2024-01-11T01:48:24.758Z,-5.20
2024-01-11T01:50:53.398Z,-5.20
2024-01-11T01:53:23.218Z,-5.30
2024-01-11T01:55:54.531Z,-5.50
2024-01-11T01:58:23.667Z,-5.50
2024-01-11T02:00:53.603Z,-5.50
2024-01-11T02:03:22.032Z,-5.40
2024-01-11T02:05:50.526Z,-5.50
2024-01-11T02:08:20.033Z,-5.70
2024-01-11T02:10:48.779Z,-5.70
2024-01-11T02:13:18.422Z,-5.60
2024-01-11T02:15:47.440Z,-5.50
2024-01-11T02:18:15.755Z,-5.60
2024-01-11T02:20:44.248Z,-5.60
2024-01-11T02:23:17.886Z,-5.70
2024-01-11T02:25:47.405Z,-5.70
2024-01-11T02:28:15.800Z,-5.70
2024-01-11T02:30:44.020Z,-5.70
2024-01-11T02:33:13.679Z,-5.70
2024-01-11T02:35:46.395Z,-5.70
2024-01-11T02:38:16.226Z,-5.80
2024-01-11T02:40:45.704Z,-5.80
2024-01-11T02:43:15.474Z,-5.90
2024-01-11T02:45:45.701Z,-5.90
2024-01-11T02:48:13.871Z,-5.90
2024-01-11T02:50:42.003Z,-5.90
2024-01-11T02:53:10.047Z,-5.90
2024-01-11T02:55:38.114Z,-5.90
2024-01-11T02:58:06.303Z,-5.90
2024-01-11T03:00:35.667Z,-5.90
2024-01-11T03:03:03.833Z,-6.00
2024-01-11T03:05:33.410Z,-6.00
2024-01-11T03:08:01.464Z,-6.00
2024-01-11T03:10:29.642Z,-6.10
2024-01-11T03:12:59.546Z,-6.10
2024-01-11T03:15:27.557Z,-6.10
2024-01-11T03:17:57.042Z,-6.10
2024-01-11T03:20:25.996Z,-6.00
2024-01-11T03:22:54.884Z,-6.00
2024-01-11T03:25:22.860Z,-6.00
2024-01-11T03:27:50.938Z,-6.20
2024-01-11T03:30:19.078Z,-5.90
2024-01-11T03:32:47.314Z,-5.80
2024-01-11T03:35:16.922Z,-5.80
2024-01-11T03:37:45.085Z,-5.80
2024-01-11T03:40:13.872Z,-5.90
2024-01-11T03:42:41.913Z,-6.00
2024-01-11T03:45:10.557Z,-6.00
2024-01-11T03:47:38.932Z,-6.10
2024-01-11T03:50:07.876Z,-6.00
2024-01-11T03:52:37.367Z,-6.00
2024-01-11T03:55:05.876Z,-6.00
2024-01-11T03:57:33.958Z,-6.10
2024-01-11T04:00:02.934Z,-6.10
2024-01-11T04:02:32.660Z,-6.10
2024-01-11T04:05:00.879Z,-6.00
2024-01-11T04:07:29.070Z,-6.00
2024-01-11T04:09:58.371Z,-6.20
2024-01-11T04:12:26.382Z,-6.10
2024-01-11T04:14:54.437Z,-6.20
2024-01-11T04:17:22.808Z,-6.10
2024-01-11T04:19:50.806Z,-6.10
2024-01-11T04:22:18.830Z,-6.10
2024-01-11T04:24:46.841Z,-6.10
2024-01-11T04:27:16.157Z,-6.10
2024-01-11T04:29:44.272Z,-6.20
2024-01-11T04:32:12.346Z,-6.20
2024-01-11T04:34:40.513Z,-6.20
2024-01-11T04:37:08.821Z,-6.20
2024-01-11T04:39:36.844Z,-6.10
2024-01-11T04:42:05.631Z,-6.10
2024-01-11T04:44:35.157Z,-6.10
2024-01-11T04:47:03.163Z,-6.20
2024-01-11T04:49:31.295Z,-6.30
2024-01-11T04:51:59.337Z,-6.30
2024-01-11T04:54:27.531Z,-6.40
2024-01-11T04:56:55.584Z,-6.30
2024-01-11T04:59:23.616Z,-6.30
2024-01-11T05:01:53.055Z,-6.40
2024-01-11T05:04:21.061Z,-6.30
2024-01-11T05:06:49.051Z,-6.30
2024-01-11T05:09:17.048Z,-6.30
2024-01-11T05:11:45.107Z,-6.20
2024-01-11T05:14:13.182Z,-6.20
2024-01-11T05:16:42.509Z,-6.40
2024-01-11T05:19:12.035Z,-6.30
2024-01-11T05:21:40.186Z,-6.30
2024-01-11T05:24:11.739Z,-6.30
2024-01-11T05:26:40.325Z,-6.30
2024-01-11T05:29:08.552Z,-6.30
2024-01-11T05:31:36.670Z,-6.30
2024-01-11T05:34:05.056Z,-6.30
2024-01-11T05:36:34.541Z,-6.30
2024-01-11T05:39:02.556Z,-6.30
2024-01-11T05:41:30.659Z,-6.30
2024-01-11T05:43:58.769Z,-6.30
2024-01-11T05:46:26.808Z,-6.30
2024-01-11T05:48:54.870Z,-6.30
2024-01-11T05:51:22.979Z,-6.20
2024-01-11T05:53:52.406Z,-6.20
2024-01-11T05:56:22.237Z,-6.20
2024-01-11T05:58:50.344Z,-6.20
2024-01-11T06:01:18.840Z,-6.20
2024-01-11T06:03:46.984Z,-6.30
2024-01-11T06:06:15.200Z,-6.30
2024-01-11T06:08:44.634Z,-6.30
2024-01-11T06:11:14.358Z,-6.20
2024-01-11T06:13:42.846Z,-6.30
2024-01-11T06:16:13.400Z,-6.30
2024-01-11T06:18:41.922Z,-6.20
2024-01-11T06:21:09.981Z,-6.20
2024-01-11T06:23:38.208Z,-6.30
2024-01-11T06:26:06.416Z,-6.20
2024-01-11T06:28:36.642Z,-6.10
2024-01-11T06:31:05.383Z,-6.20
2024-01-11T06:33:34.010Z,-6.20
2024-01-11T06:36:02.213Z,-6.00
2024-01-11T06:38:30.269Z,-6.00
2024-01-11T06:40:59.136Z,-6.10
2024-01-11T06:43:27.464Z,-6.20
2024-01-11T06:45:56.969Z,-6.20
2024-01-11T06:48:25.594Z,-6.10
2024-01-11T06:50:53.776Z,-6.10
2024-01-11T06:53:22.286Z,-6.30
2024-01-11T06:55:50.272Z,-6.20
2024-01-11T06:58:18.426Z,-6.20
2024-01-11T07:00:46.500Z,-6.20
2024-01-11T07:03:16.108Z,-6.30
2024-01-11T07:05:44.271Z,-6.20
2024-01-11T07:08:12.365Z,-6.30
2024-01-11T07:10:40.458Z,-6.30
2024-01-11T07:13:08.404Z,-6.20
2024-01-11T07:15:36.445Z,-6.20
2024-01-11T07:18:05.722Z,-6.20
2024-01-11T07:20:35.180Z,-6.30
2024-01-11T07:23:03.449Z,-6.30
2024-01-11T07:25:31.770Z,-6.30
2024-01-11T07:28:00.152Z,-6.30
2024-01-11T07:30:28.200Z,-6.30
2024-01-11T07:32:56.476Z,-6.20
2024-01-11T07:35:24.600Z,-6.30
2024-01-11T07:37:54.010Z,-6.20
2024-01-11T07:40:22.083Z,-6.30
2024-01-11T07:42:50.833Z,-6.30
2024-01-11T07:45:20.091Z,-6.30
2024-01-11T07:47:48.238Z,-6.20
2024-01-11T07:50:16.450Z,-6.20
2024-01-11T07:52:44.508Z,-6.30
2024-01-11T07:55:14.440Z,-6.20
2024-01-11T07:57:42.976Z,-6.20
2024-01-11T08:00:11.657Z,-6.20
2024-01-11T08:02:42.473Z,-6.10
2024-01-11T08:05:11.107Z,-6.10
2024-01-11T08:07:39.357Z,-6.20
2024-01-11T08:10:10.116Z,-6.10
2024-01-11T08:12:39.990Z,-6.00
2024-01-11T08:15:13.457Z,-5.80
2024-01-11T08:17:46.589Z,-5.80
2024-01-11T08:20:16.813Z,-5.80
2024-01-11T08:22:45.185Z,-5.70
2024-01-11T08:25:14.168Z,-5.70
2024-01-11T08:27:43.973Z,-5.70
2024-01-11T08:30:13.799Z,-5.70
2024-01-11T08:32:43.296Z,-5.70
2024-01-11T08:35:12.841Z,-5.60
2024-01-11T08:37:41.179Z,-5.50
2024-01-11T08:40:12.149Z,-5.50
2024-01-11T08:42:42.236Z,-5.60
2024-01-11T08:45:18.725Z,-5.60
2024-01-11T08:47:46.969Z,-5.40
2024-01-11T08:50:15.498Z,-5.40
2024-01-11T08:52:44.412Z,-5.40
2024-01-11T08:55:13.763Z,-5.50
2024-01-11T08:57:42.212Z,-5.40
2024-01-11T09:00:13.101Z,-5.30
2024-01-11T09:02:41.119Z,-5.10
2024-01-11T09:05:10.163Z,-5.00
2024-01-11T09:07:38.379Z,-5.00
2024-01-11T09:10:10.896Z,-4.90
2024-01-11T09:12:38.938Z,-4.80
2024-01-11T09:15:07.637Z,-4.80
2024-01-11T09:17:37.846Z,-4.80
2024-01-11T09:20:06.763Z,-4.70
2024-01-11T09:22:34.797Z,-4.70
2024-01-11T09:25:02.771Z,-4.60
2024-01-11T09:27:30.711Z,-4.50
2024-01-11T09:29:58.802Z,-4.40
2024-01-11T09:32:27.048Z,-4.30
2024-01-11T09:34:56.575Z,-4.20
2024-01-11T09:37:24.950Z,-4.20
2024-01-11T09:39:52.910Z,-4.10
2024-01-11T09:53:09.855Z,-4.00
2024-01-11T09:55:38.694Z,-3.80
2024-01-11T09:58:08.470Z,-3.80
2024-01-11T10:00:37.059Z,-3.60
2024-01-11T10:03:05.648Z,-3.60
2024-01-11T10:05:36.739Z,-3.50
2024-01-11T10:08:06.889Z,-3.50
2024-01-11T10:10:36.263Z,-3.40
2024-01-11T10:13:04.480Z,-3.30
2024-01-11T10:15:35.525Z,-3.30
2024-01-11T10:18:03.751Z,-3.20
2024-01-11T10:20:33.547Z,-3.10
2024-01-11T10:23:04.622Z,-3.00
2024-01-11T10:25:32.779Z,-2.90
2024-01-11T10:28:02.121Z,-2.90
2024-01-11T10:30:30.158Z,-2.90
2024-01-11T10:33:00.580Z,-2.70
2024-01-11T10:35:30.333Z,-2.70
2024-01-11T10:38:00.710Z,-2.70
2024-01-11T10:40:29.693Z,-2.70
2024-01-11T10:43:00.552Z,-2.60
2024-01-11T10:45:30.303Z,-2.60
2024-01-11T10:48:05.720Z,-2.60
2024-01-11T10:50:38.918Z,-2.50
2024-01-11T10:53:15.024Z,-2.50
2024-01-11T10:55:44.489Z,-2.40
2024-01-11T10:58:13.407Z,-2.50
2024-01-11T11:00:42.798Z,-2.40
2024-01-11T11:03:13.450Z,-2.30
2024-01-11T11:05:42.229Z,-2.10
2024-01-11T11:08:12.550Z,-2.10
2024-01-11T11:10:42.718Z,-2.10
2024-01-11T11:13:12.805Z,-2.10
2024-01-11T11:15:44.262Z,-2.00
2024-01-11T11:18:14.200Z,-2.10
2024-01-11T11:20:43.280Z,-1.90
2024-01-11T11:23:13.401Z,-1.90
2024-01-11T11:25:43.469Z,-1.90
2024-01-11T11:28:14.491Z,-1.80
2024-01-11T11:30:45.443Z,-1.80
2024-01-11T11:33:18.976Z,-1.70
2024-01-11T11:35:48.896Z,-1.60
2024-01-11T11:38:21.091Z,-1.50
2024-01-11T11:40:50.629Z,-1.50
2024-01-11T11:43:19.691Z,-1.40
2024-01-11T11:45:50.649Z,-1.30
2024-01-11T11:48:56.671Z,-1.30
2024-01-11T11:51:28.700Z,-1.20
2024-01-11T11:53:57.851Z,-1.00
2024-01-11T11:56:26.777Z,-1.00
2024-01-11T11:58:56.412Z,-0.90
2024-01-11T12:01:26.216Z,-0.90
2024-01-11T12:03:55.046Z,-0.80
2024-01-11T12:06:25.612Z,-0.70
2024-01-11T12:08:57.644Z,-0.70
2024-01-11T12:11:27.650Z,-0.70
2024-01-11T12:13:58.159Z,-0.70
2024-01-11T12:16:28.864Z,-0.70
2024-01-11T12:18:57.196Z,-0.70
2024-01-11T12:21:25.481Z,-0.70
2024-01-11T12:23:53.541Z,-0.70
2024-01-11T12:26:23.881Z,-0.60
2024-01-11T12:28:53.071Z,-0.60
2024-01-11T12:31:23.278Z,-0.50
2024-01-11T12:33:53.563Z,-0.40
2024-01-11T12:36:22.164Z,-0.40
2024-01-11T12:38:52.921Z,-0.40
2024-01-11T12:41:24.105Z,-0.50
2024-01-11T12:43:52.356Z,-0.40
2024-01-11T12:46:20.336Z,-0.40
2024-01-11T12:48:49.293Z,-0.40
2024-01-11T12:51:21.880Z,-0.30
2024-01-11T12:53:51.221Z,-0.40
2024-01-11T12:56:22.598Z,-0.40
2024-01-11T12:58:51.015Z,-0.40
2024-01-11T13:01:19.316Z,-0.30
2024-01-11T13:03:49.254Z,-0.30
2024-01-11T13:06:20.350Z,-0.30
2024-01-11T13:08:48.899Z,-0.30
2024-01-11T13:11:18.622Z,-0.30
2024-01-11T13:13:48.255Z,-0.30
2024-01-11T13:16:16.961Z,-0.30
2024-01-11T13:18:45.374Z,-0.30
2024-01-11T13:21:14.537Z,-0.20
2024-01-11T13:23:44.317Z,-0.20
2024-01-11T13:26:12.541Z,-0.20
2024-01-11T13:28:41.642Z,-0.20
2024-01-11T13:31:10.949Z,-0.10
2024-01-11T13:33:40.265Z,-0.30
2024-01-11T13:36:09.754Z,-0.30
2024-01-11T13:38:38.204Z,-0.40
2024-01-11T13:41:09.360Z,-0.40
2024-01-11T13:43:37.936Z,-0.30
2024-01-11T13:46:06.270Z,-0.40
2024-01-11T13:48:34.750Z,-0.30
2024-01-11T13:51:04.251Z,-0.20
2024-01-11T13:53:32.975Z,-0.30
2024-01-11T13:56:01.147Z,-0.40
2024-01-11T13:58:30.549Z,-0.40
2024-01-11T14:00:58.854Z,-0.30
2024-01-11T14:03:27.325Z,-0.30
2024-01-11T14:05:55.594Z,-0.30
2024-01-11T14:08:23.822Z,-0.20
2024-01-11T14:10:51.920Z,-0.20
2024-01-11T14:13:20.122Z,-0.20
2024-01-11T14:15:51.826Z,-0.10
2024-01-11T14:18:20.165Z,-0.20
2024-01-11T14:20:48.600Z,-0.40
2024-01-11T14:23:16.696Z,-0.40
2024-01-11T14:25:44.752Z,-0.40
2024-01-11T14:28:12.889Z,-0.30
2024-01-11T14:30:40.916Z,-0.40
2024-01-11T14:33:10.363Z,-0.20
2024-01-11T14:35:38.421Z,-0.10
2024-01-11T14:38:06.508Z,-0.30
2024-01-11T14:40:34.552Z,-0.10
2024-01-11T14:43:05.268Z,-0.20
2024-01-11T14:45:33.237Z,-0.20
2024-01-11T14:48:01.958Z,-0.20
2024-01-11T14:50:31.473Z,-0.10
2024-01-11T14:52:59.490Z,-0.10
2024-01-11T14:55:27.471Z,-0.10
2024-01-11T14:57:56.561Z,0.00
2024-01-11T15:00:25.970Z,0.00
2024-01-11T15:02:54.484Z,-0.10
2024-01-11T15:05:23.122Z,-0.10
2024-01-11T15:07:52.502Z,0.00
2024-01-11T15:10:20.516Z,0.00
2024-01-11T15:12:48.455Z,0.00
2024-01-11T15:15:16.556Z,0.00
2024-01-11T15:17:44.844Z,0.00
2024-01-11T15:20:13.468Z,0.10
2024-01-11T15:22:41.878Z,0.10
2024-01-11T15:25:11.457Z,0.10
2024-01-11T15:27:39.410Z,0.00
2024-01-11T15:30:09.518Z,0.00
2024-01-11T15:32:38.485Z,0.00
2024-01-11T15:35:08.883Z,0.10
2024-01-11T15:37:37.136Z,0.00
2024-01-11T15:40:09.797Z,-0.10
2024-01-11T15:42:39.981Z,0.00
2024-01-11T15:45:08.987Z,0.00
2024-01-11T15:47:37.274Z,-0.10
2024-01-11T15:50:09.732Z,-0.10
2024-01-11T15:52:38.012Z,-0.10
2024-01-11T15:55:09.987Z,0.00
2024-01-11T15:57:39.389Z,0.00
2024-01-11T16:00:11.066Z,0.00
2024-01-11T16:02:43.884Z,0.00
2024-01-11T16:05:12.432Z,0.00
2024-01-11T16:07:40.880Z,0.00
2024-01-11T16:10:09.820Z,0.00
2024-01-11T16:12:39.193Z,0.10
2024-01-11T16:15:07.985Z,0.10
2024-01-11T16:17:36.197Z,0.00
2024-01-11T16:20:05.832Z,0.10
2024-01-11T16:22:34.145Z,0.10
2024-01-11T16:25:02.324Z,0.10
2024-01-11T16:27:30.525Z,0.10
2024-01-11T16:30:03.065Z,0.10
2024-01-11T16:32:33.962Z,0.10
2024-01-11T16:35:02.520Z,0.20
2024-01-11T16:37:30.648Z,0.20
2024-01-11T16:39:58.793Z,0.20
2024-01-11T16:42:26.981Z,0.20
2024-01-11T16:44:55.576Z,0.20
2024-01-11T16:47:25.079Z,0.20
2024-01-11T16:49:53.274Z,0.20
2024-01-11T16:52:21.838Z,0.20
2024-01-11T16:54:49.944Z,0.20
2024-01-11T16:57:18.079Z,0.20
2024-01-11T16:59:46.268Z,0.20
2024-01-11T17:02:14.409Z,0.10
2024-01-11T17:04:44.546Z,0.20
2024-01-11T17:07:12.590Z,0.20
2024-01-11T17:09:40.691Z,0.20
2024-01-11T17:12:09.871Z,0.20
2024-01-11T17:14:37.987Z,0.20
2024-01-11T17:17:08.205Z,0.20
2024-01-11T17:19:36.400Z,0.20
2024-01-11T17:22:06.207Z,0.20
2024-01-11T17:24:34.264Z,0.20
2024-01-11T17:27:08.752Z,0.20
2024-01-11T17:29:38.480Z,0.20
2024-01-11T17:32:07.434Z,0.20
2024-01-11T17:34:35.642Z,0.20
2024-01-11T17:37:05.142Z,0.20
2024-01-11T17:39:33.315Z,0.30
2024-01-11T17:42:01.442Z,0.30
2024-01-11T17:44:29.792Z,0.30
2024-01-11T17:46:57.913Z,0.30
2024-01-11T17:49:26.149Z,0.30
2024-01-11T17:51:57.129Z,0.30
2024-01-11T17:54:27.055Z,0.30
2024-01-11T17:56:55.727Z,0.30
2024-01-11T17:59:24.165Z,0.30
2024-01-11T18:01:52.270Z,0.30
2024-01-11T18:04:20.784Z,0.20
2024-01-11T18:06:49.896Z,0.30
2024-01-11T18:09:18.613Z,0.30
2024-01-11T18:11:49.824Z,0.30
2024-01-11T18:14:18.820Z,0.30
2024-01-11T18:16:47.033Z,0.30
2024-01-11T18:19:15.470Z,0.40
2024-01-11T18:21:44.147Z,0.30
2024-01-11T18:24:12.271Z,0.30
2024-01-11T18:26:40.317Z,0.30
2024-01-11T18:29:09.759Z,0.30
2024-01-11T18:31:38.419Z,0.40
2024-01-11T18:34:06.700Z,0.40
2024-01-11T18:36:45.295Z,0.40
2024-01-11T18:39:13.761Z,0.40
2024-01-11T18:41:42.646Z,0.40
2024-01-11T18:44:13.030Z,0.40
2024-01-11T18:46:41.548Z,0.40
2024-01-11T18:49:10.061Z,0.50
2024-01-11T18:51:41.814Z,0.50
2024-01-11T18:54:10.252Z,0.40
2024-01-11T18:56:38.526Z,0.40
2024-01-11T18:59:06.816Z,0.50
2024-01-11T19:01:36.346Z,0.40
2024-01-11T19:04:04.564Z,0.50
2024-01-11T19:06:32.998Z,0.50
2024-01-11T19:09:01.205Z,0.50
2024-01-11T19:11:29.310Z,0.50
2024-01-11T19:13:58.294Z,0.50
2024-01-11T19:16:26.437Z,0.50
2024-01-11T19:18:56.159Z,0.50
2024-01-11T19:21:25.669Z,0.50
2024-01-11T19:23:53.770Z,0.50
2024-01-11T19:26:21.994Z,0.50
2024-01-11T19:28:50.258Z,0.50
2024-01-11T19:31:18.688Z,0.50
2024-01-11T19:33:47.017Z,0.50
2024-01-11T19:36:16.482Z,0.50
2024-01-11T19:38:44.818Z,0.50
2024-01-11T19:41:13.280Z,0.50
2024-01-11T19:43:46.940Z,0.50
2024-01-11T19:46:19.107Z,0.50
2024-01-11T19:48:48.326Z,0.60
2024-01-11T19:51:18.241Z,0.60
2024-01-11T19:53:46.354Z,0.60
2024-01-11T19:56:18.755Z,0.60
2024-01-11T19:58:47.134Z,0.60
2024-01-11T20:01:15.785Z,0.60
2024-01-11T20:03:44.803Z,0.60
2024-01-11T20:06:13.276Z,0.60
2024-01-11T20:08:42.986Z,0.60
2024-01-11T20:11:12.221Z,0.60
2024-01-11T20:13:40.340Z,0.60
2024-01-11T20:16:09.389Z,0.60
2024-01-11T20:18:38.121Z,0.60
2024-01-11T20:21:11.642Z,0.60
2024-01-11T20:23:44.862Z,0.60
2024-01-11T20:26:14.816Z,0.50
2024-01-11T20:28:43.147Z,0.60
2024-01-11T20:31:11.411Z,0.60
2024-01-11T20:33:40.004Z,0.60
2024-01-11T20:36:09.225Z,0.60
2024-01-11T20:38:37.592Z,0.60
2024-01-11T20:41:07.284Z,0.60
2024-01-11T20:43:35.483Z,0.60
2024-01-11T20:46:04.171Z,0.60
2024-01-11T20:48:32.494Z,0.60
2024-01-11T20:51:00.853Z,0.70
2024-01-11T20:53:28.990Z,0.70
2024-01-11T20:55:57.604Z,0.60
2024-01-11T20:58:27.047Z,0.70
2024-01-11T21:00:55.259Z,0.60
2024-01-11T21:03:23.755Z,0.70
2024-01-11T21:05:55.014Z,0.70
2024-01-11T21:08:24.593Z,0.70
2024-01-11T21:10:53.123Z,0.70
2024-01-11T21:13:21.977Z,0.70
2024-01-11T21:15:51.548Z,0.60
2024-01-11T21:18:20.154Z,0.60
2024-01-11T21:20:49.068Z,0.60
2024-01-11T21:23:18.288Z,0.60
2024-01-11T21:25:46.445Z,0.60
2024-01-11T21:28:15.976Z,0.70
2024-01-11T21:30:44.263Z,0.60
2024-01-11T21:33:14.517Z,0.70
2024-01-11T21:35:43.774Z,0.60
2024-01-11T21:38:12.001Z,0.70
2024-01-11T21:40:40.696Z,0.70
2024-01-11T21:43:09.500Z,0.70
2024-01-11T21:45:37.944Z,0.70
2024-01-11T21:48:07.321Z,0.60
2024-01-11T21:50:37.280Z,0.60
2024-01-11T21:53:06.418Z,0.70
2024-01-11T21:55:34.634Z,0.70
2024-01-11T21:58:04.137Z,0.70
2024-01-11T22:00:32.811Z,0.70
2024-01-11T22:03:01.005Z,0.70
2024-01-11T22:05:29.913Z,0.70
2024-01-11T22:07:59.385Z,0.70
2024-01-11T22:10:28.287Z,0.70
2024-01-11T22:12:56.669Z,0.70
2024-01-11T22:15:24.717Z,0.60
2024-01-11T22:17:53.001Z,0.70
2024-01-11T22:20:21.434Z,0.70
2024-01-11T22:22:49.604Z,0.70
2024-01-11T22:25:19.256Z,0.80
2024-01-11T22:27:47.362Z,0.70
2024-01-11T22:30:15.953Z,0.70
2024-01-11T22:32:44.317Z,0.80
2024-01-11T22:35:12.757Z,0.70
2024-01-11T22:37:40.897Z,0.70
2024-01-11T22:40:10.266Z,0.70
2024-01-11T22:42:39.676Z,0.70
2024-01-11T22:45:09.347Z,0.70
2024-01-11T22:47:39.012Z,0.70
2024-01-11T22:50:08.084Z,0.80
2024-01-11T22:52:36.313Z,0.80
2024-01-11T22:55:04.634Z,0.80
2024-01-11T22:57:33.042Z,0.70
2024-01-11T23:00:03.048Z,0.70
2024-01-11T23:02:31.105Z,0.70
2024-01-11T23:04:59.269Z,0.70
2024-01-11T23:07:27.290Z,0.70
2024-01-11T23:09:55.314Z,0.70
2024-01-11T23:12:23.384Z,0.80
2024-01-11T23:14:51.619Z,0.80
2024-01-11T23:17:21.227Z,0.80
2024-01-11T23:19:49.512Z,0.80
2024-01-11T23:22:17.617Z,0.80
2024-01-11T23:24:45.930Z,0.70
2024-01-11T23:27:13.952Z,0.80
2024-01-11T23:29:42.094Z,0.70
2024-01-11T23:32:10.408Z,0.70
2024-01-11T23:34:39.930Z,0.70
2024-01-11T23:37:08.112Z,0.80
2024-01-11T23:39:36.162Z,0.80
2024-01-11T23:42:04.227Z,0.80
2024-01-11T23:44:32.325Z,0.80
2024-01-11T23:47:00.467Z,0.80
2024-01-11T23:49:29.034Z,0.80
2024-01-11T23:51:58.477Z,0.80
2024-01-11T23:54:26.911Z,0.80
2024-01-11T23:56:55.029Z,0.80
2024-01-11T23:59:23.473Z,0.90
